sensor_id;sensor_type;location;lat;lon;timestamp;P1;durP1;ratioP1;P2;durP2;ratioP2
34481;SDS011;20720;48.886;9.388;2024-02-23T00:01:53;1.35;;;0.10;;
34481;SDS011;20720;48.886;9.388;2024-02-23T00:04:19;1.25;;;0.10;;
34481;SDS011;20720;48.886;9.388;2024-02-23T00:06:44;0.95;;;0.10;;
34481;SDS011;20720;48.886;9.388;2024-02-23T00:09:10;1.35;;;0.20;;
34481;SDS011;20720;48.886;9.388;2024-02-23T00:11:35;0.47;;;0.10;;
34481;SDS011;20720;48.886;9.388;2024-02-23T00:14:05;0.57;;;0.10;;
34481;SDS011;20720;48.886;9.388;2024-02-23T00:16:31;2.25;;;0.20;;
34481;SDS011;20720;48.886;9.388;2024-02-23T00:18:56;0.40;;;0.10;;
34481;SDS011;20720;48.886;9.388;2024-02-23T00:21:21;1.25;;;0.15;;
34481;SDS011;20720;48.886;9.388;2024-02-23T00:23:46;1.70;;;0.10;;
34481;SDS011;20720;48.886;9.388;2024-02-23T00:26:12;0.75;;;0.10;;
34481;SDS011;20720;48.886;9.388;2024-02-23T00:28:37;0.30;;;0.10;;
34481;SDS011;20720;48.886;9.388;2024-02-23T00:31:02;0.82;;;0.20;;
34481;SDS011;20720;48.886;9.388;2024-02-23T00:33:28;0.75;;;0.05;;
34481;SDS011;20720;48.886;9.388;2024-02-23T00:35:53;1.08;;;0.10;;
34481;SDS011;20720;48.886;9.388;2024-02-23T00:38:18;0.63;;;0.10;;
34481;SDS011;20720;48.886;9.388;2024-02-23T00:40:44;2.13;;;0.10;;
34481;SDS011;20720;48.886;9.388;2024-02-23T00:43:09;0.77;;;0.20;;
34481;SDS011;20720;48.886;9.388;2024-02-23T00:45:35;0.90;;;0.20;;
34481;SDS011;20720;48.886;9.388;2024-02-23T00:48:00;0.10;;;0.00;;
34481;SDS011;20720;48.886;9.388;2024-02-23T00:50:25;0.43;;;0.10;;
34481;SDS011;20720;48.886;9.388;2024-02-23T00:52:52;0.32;;;0.10;;
34481;SDS011;20720;48.886;9.388;2024-02-23T00:55:18;1.23;;;0.10;;
34481;SDS011;20720;48.886;9.388;2024-02-23T00:57:43;0.88;;;0.10;;
34481;SDS011;20720;48.886;9.388;2024-02-23T01:00:09;1.80;;;0.10;;
34481;SDS011;20720;48.886;9.388;2024-02-23T01:02:34;2.95;;;0.20;;
34481;SDS011;20720;48.886;9.388;2024-02-23T01:04:59;1.60;;;0.10;;
34481;SDS011;20720;48.886;9.388;2024-02-23T01:07:25;0.30;;;0.10;;
34481;SDS011;20720;48.886;9.388;2024-02-23T01:09:50;1.08;;;0.13;;
34481;SDS011;20720;48.886;9.388;2024-02-23T01:12:16;1.00;;;0.25;;
34481;SDS011;20720;48.886;9.388;2024-02-23T01:14:41;0.75;;;0.20;;
34481;SDS011;20720;48.886;9.388;2024-02-23T01:17:06;1.45;;;0.25;;
34481;SDS011;20720;48.886;9.388;2024-02-23T01:19:31;1.15;;;0.30;;
34481;SDS011;20720;48.886;9.388;2024-02-23T01:21:57;2.75;;;0.30;;
34481;SDS011;20720;48.886;9.388;2024-02-23T01:24:25;2.13;;;0.38;;
34481;SDS011;20720;48.886;9.388;2024-02-23T01:26:52;0.80;;;0.20;;
34481;SDS011;20720;48.886;9.388;2024-02-23T01:29:19;2.70;;;0.25;;
34481;SDS011;20720;48.886;9.388;2024-02-23T01:31:45;1.52;;;0.20;;
34481;SDS011;20720;48.886;9.388;2024-02-23T01:34:10;1.25;;;0.20;;
34481;SDS011;20720;48.886;9.388;2024-02-23T01:36:35;1.20;;;0.10;;
34481;SDS011;20720;48.886;9.388;2024-02-23T01:39:02;0.85;;;0.15;;
34481;SDS011;20720;48.886;9.388;2024-02-23T01:41:27;0.22;;;0.10;;
34481;SDS011;20720;48.886;9.388;2024-02-23T01:43:52;1.33;;;0.60;;
34481;SDS011;20720;48.886;9.388;2024-02-23T01:46:17;1.38;;;0.15;;
34481;SDS011;20720;48.886;9.388;2024-02-23T01:48:44;1.83;;;0.75;;
34481;SDS011;20720;48.886;9.388;2024-02-23T01:51:11;1.67;;;0.30;;
34481;SDS011;20720;48.886;9.388;2024-02-23T01:53:37;1.25;;;0.20;;
34481;SDS011;20720;48.886;9.388;2024-02-23T01:56:03;2.83;;;0.20;;
34481;SDS011;20720;48.886;9.388;2024-02-23T01:58:29;2.60;;;0.30;;
34481;SDS011;20720;48.886;9.388;2024-02-23T02:00:56;0.63;;;0.10;;
34481;SDS011;20720;48.886;9.388;2024-02-23T02:03:22;1.70;;;0.25;;
34481;SDS011;20720;48.886;9.388;2024-02-23T02:05:47;0.20;;;0.05;;
34481;SDS011;20720;48.886;9.388;2024-02-23T02:08:14;5.10;;;0.20;;
34481;SDS011;20720;48.886;9.388;2024-02-23T02:10:40;1.67;;;0.40;;
34481;SDS011;20720;48.886;9.388;2024-02-23T02:13:07;4.63;;;0.30;;
34481;SDS011;20720;48.886;9.388;2024-02-23T02:15:32;0.40;;;0.10;;
34481;SDS011;20720;48.886;9.388;2024-02-23T02:17:58;1.08;;;0.30;;
34481;SDS011;20720;48.886;9.388;2024-02-23T02:20:26;1.88;;;0.35;;
34481;SDS011;20720;48.886;9.388;2024-02-23T02:22:53;3.25;;;0.30;;
34481;SDS011;20720;48.886;9.388;2024-02-23T02:25:19;2.55;;;0.40;;
34481;SDS011;20720;48.886;9.388;2024-02-23T02:27:44;5.82;;;0.32;;
34481;SDS011;20720;48.886;9.388;2024-02-23T02:30:11;1.05;;;0.32;;
34481;SDS011;20720;48.886;9.388;2024-02-23T02:32:37;3.28;;;0.30;;
34481;SDS011;20720;48.886;9.388;2024-02-23T02:35:02;1.30;;;0.32;;
34481;SDS011;20720;48.886;9.388;2024-02-23T02:37:27;4.88;;;0.50;;
34481;SDS011;20720;48.886;9.388;2024-02-23T02:39:53;4.22;;;0.88;;
34481;SDS011;20720;48.886;9.388;2024-02-23T02:42:18;3.35;;;0.40;;
34481;SDS011;20720;48.886;9.388;2024-02-23T02:44:43;1.15;;;0.40;;
34481;SDS011;20720;48.886;9.388;2024-02-23T02:47:09;1.42;;;0.30;;
34481;SDS011;20720;48.886;9.388;2024-02-23T02:49:34;2.05;;;0.30;;
34481;SDS011;20720;48.886;9.388;2024-02-23T02:51:59;2.10;;;0.30;;
34481;SDS011;20720;48.886;9.388;2024-02-23T02:54:24;1.73;;;0.35;;
34481;SDS011;20720;48.886;9.388;2024-02-23T02:56:50;1.38;;;0.35;;
34481;SDS011;20720;48.886;9.388;2024-02-23T02:59:15;2.22;;;0.40;;
34481;SDS011;20720;48.886;9.388;2024-02-23T03:01:41;2.78;;;0.38;;
34481;SDS011;20720;48.886;9.388;2024-02-23T03:04:07;3.85;;;0.45;;
34481;SDS011;20720;48.886;9.388;2024-02-23T03:06:33;1.10;;;0.20;;
34481;SDS011;20720;48.886;9.388;2024-02-23T03:08:58;3.60;;;0.35;;
34481;SDS011;20720;48.886;9.388;2024-02-23T03:11:24;1.30;;;0.28;;
34481;SDS011;20720;48.886;9.388;2024-02-23T03:13:49;2.30;;;0.10;;
34481;SDS011;20720;48.886;9.388;2024-02-23T03:16:15;1.38;;;0.30;;
34481;SDS011;20720;48.886;9.388;2024-02-23T03:18:41;1.85;;;0.52;;
34481;SDS011;20720;48.886;9.388;2024-02-23T03:21:06;3.47;;;0.63;;
34481;SDS011;20720;48.886;9.388;2024-02-23T03:23:31;2.83;;;0.40;;
34481;SDS011;20720;48.886;9.388;2024-02-23T03:25:57;1.08;;;0.30;;
34481;SDS011;20720;48.886;9.388;2024-02-23T03:28:22;1.45;;;0.20;;
34481;SDS011;20720;48.886;9.388;2024-02-23T03:30:47;2.47;;;0.32;;
34481;SDS011;20720;48.886;9.388;2024-02-23T03:33:13;0.80;;;0.30;;
34481;SDS011;20720;48.886;9.388;2024-02-23T03:35:38;0.68;;;0.20;;
34481;SDS011;20720;48.886;9.388;2024-02-23T03:38:03;1.63;;;0.30;;
34481;SDS011;20720;48.886;9.388;2024-02-23T03:40:28;1.23;;;0.20;;
34481;SDS011;20720;48.886;9.388;2024-02-23T03:42:54;1.08;;;0.25;;
34481;SDS011;20720;48.886;9.388;2024-02-23T03:45:19;0.82;;;0.20;;
34481;SDS011;20720;48.886;9.388;2024-02-23T03:47:44;5.03;;;0.57;;
34481;SDS011;20720;48.886;9.388;2024-02-23T03:50:09;1.05;;;0.28;;
34481;SDS011;20720;48.886;9.388;2024-02-23T03:52:35;0.50;;;0.15;;
34481;SDS011;20720;48.886;9.388;2024-02-23T03:55:00;2.55;;;0.22;;
34481;SDS011;20720;48.886;9.388;2024-02-23T03:57:25;4.78;;;0.55;;
34481;SDS011;20720;48.886;9.388;2024-02-23T03:59:54;3.58;;;0.25;;
34481;SDS011;20720;48.886;9.388;2024-02-23T04:02:20;4.65;;;0.60;;
34481;SDS011;20720;48.886;9.388;2024-02-23T04:04:46;2.10;;;0.40;;
34481;SDS011;20720;48.886;9.388;2024-02-23T04:07:12;0.75;;;0.20;;
34481;SDS011;20720;48.886;9.388;2024-02-23T04:09:37;2.65;;;0.50;;
34481;SDS011;20720;48.886;9.388;2024-02-23T04:12:03;4.55;;;1.05;;
34481;SDS011;20720;48.886;9.388;2024-02-23T04:14:28;0.90;;;0.30;;
34481;SDS011;20720;48.886;9.388;2024-02-23T04:16:53;2.03;;;0.45;;
34481;SDS011;20720;48.886;9.388;2024-02-23T04:19:19;3.13;;;0.38;;
34481;SDS011;20720;48.886;9.388;2024-02-23T04:21:44;0.70;;;0.15;;
34481;SDS011;20720;48.886;9.388;2024-02-23T04:24:09;0.60;;;0.20;;
34481;SDS011;20720;48.886;9.388;2024-02-23T04:26:34;1.73;;;0.35;;
34481;SDS011;20720;48.886;9.388;2024-02-23T04:29:00;1.75;;;0.55;;
34481;SDS011;20720;48.886;9.388;2024-02-23T04:31:25;2.38;;;0.30;;
34481;SDS011;20720;48.886;9.388;2024-02-23T04:33:50;2.10;;;0.30;;
34481;SDS011;20720;48.886;9.388;2024-02-23T04:36:18;0.88;;;0.25;;
34481;SDS011;20720;48.886;9.388;2024-02-23T04:38:45;1.52;;;0.30;;
34481;SDS011;20720;48.886;9.388;2024-02-23T04:41:10;2.70;;;0.40;;
34481;SDS011;20720;48.886;9.388;2024-02-23T04:43:36;1.25;;;0.30;;
34481;SDS011;20720;48.886;9.388;2024-02-23T04:46:01;1.92;;;0.40;;
34481;SDS011;20720;48.886;9.388;2024-02-23T04:48:26;2.10;;;0.20;;
34481;SDS011;20720;48.886;9.388;2024-02-23T04:50:51;2.35;;;0.90;;
34481;SDS011;20720;48.886;9.388;2024-02-23T04:53:17;1.38;;;0.32;;
34481;SDS011;20720;48.886;9.388;2024-02-23T04:55:42;1.35;;;0.13;;
34481;SDS011;20720;48.886;9.388;2024-02-23T04:58:07;3.15;;;0.47;;
34481;SDS011;20720;48.886;9.388;2024-02-23T05:00:33;1.65;;;0.20;;
34481;SDS011;20720;48.886;9.388;2024-02-23T05:03:01;2.95;;;0.30;;
34481;SDS011;20720;48.886;9.388;2024-02-23T05:05:30;4.55;;;0.40;;
34481;SDS011;20720;48.886;9.388;2024-02-23T05:07:55;2.88;;;0.35;;
34481;SDS011;20720;48.886;9.388;2024-02-23T05:10:21;1.98;;;0.40;;
34481;SDS011;20720;48.886;9.388;2024-02-23T05:12:47;3.08;;;0.60;;
34481;SDS011;20720;48.886;9.388;2024-02-23T05:15:13;3.13;;;0.45;;
34481;SDS011;20720;48.886;9.388;2024-02-23T05:17:38;2.15;;;0.40;;
34481;SDS011;20720;48.886;9.388;2024-02-23T05:20:03;1.33;;;0.30;;
34481;SDS011;20720;48.886;9.388;2024-02-23T05:22:33;1.35;;;0.40;;
34481;SDS011;20720;48.886;9.388;2024-02-23T05:24:58;0.75;;;0.30;;
34481;SDS011;20720;48.886;9.388;2024-02-23T05:27:23;0.77;;;0.20;;
34481;SDS011;20720;48.886;9.388;2024-02-23T05:29:49;1.63;;;0.40;;
34481;SDS011;20720;48.886;9.388;2024-02-23T05:32:14;3.55;;;0.47;;
34481;SDS011;20720;48.886;9.388;2024-02-23T05:34:39;1.50;;;0.30;;
34481;SDS011;20720;48.886;9.388;2024-02-23T05:37:04;2.75;;;0.40;;
34481;SDS011;20720;48.886;9.388;2024-02-23T05:39:30;2.05;;;0.68;;
34481;SDS011;20720;48.886;9.388;2024-02-23T05:41:56;3.83;;;0.43;;
34481;SDS011;20720;48.886;9.388;2024-02-23T05:44:22;3.28;;;0.40;;
34481;SDS011;20720;48.886;9.388;2024-02-23T05:46:47;3.28;;;0.20;;
34481;SDS011;20720;48.886;9.388;2024-02-23T05:49:13;2.08;;;0.40;;
34481;SDS011;20720;48.886;9.388;2024-02-23T05:51:38;2.05;;;0.30;;
34481;SDS011;20720;48.886;9.388;2024-02-23T05:54:03;2.58;;;0.55;;
34481;SDS011;20720;48.886;9.388;2024-02-23T05:56:29;1.77;;;0.20;;
34481;SDS011;20720;48.886;9.388;2024-02-23T05:58:54;3.22;;;0.47;;
34481;SDS011;20720;48.886;9.388;2024-02-23T06:01:20;3.75;;;0.55;;
34481;SDS011;20720;48.886;9.388;2024-02-23T06:03:45;1.88;;;0.40;;
34481;SDS011;20720;48.886;9.388;2024-02-23T06:06:11;3.40;;;0.40;;
34481;SDS011;20720;48.886;9.388;2024-02-23T06:08:36;4.32;;;0.70;;
34481;SDS011;20720;48.886;9.388;2024-02-23T06:11:02;2.50;;;0.30;;
34481;SDS011;20720;48.886;9.388;2024-02-23T06:13:29;0.90;;;0.30;;
34481;SDS011;20720;48.886;9.388;2024-02-23T06:15:54;3.05;;;0.43;;
34481;SDS011;20720;48.886;9.388;2024-02-23T06:18:20;4.30;;;0.52;;
34481;SDS011;20720;48.886;9.388;2024-02-23T06:20:45;2.22;;;0.50;;
34481;SDS011;20720;48.886;9.388;2024-02-23T06:23:10;3.45;;;0.47;;
34481;SDS011;20720;48.886;9.388;2024-02-23T06:25:35;4.47;;;0.60;;
34481;SDS011;20720;48.886;9.388;2024-02-23T06:28:01;2.78;;;0.40;;
34481;SDS011;20720;48.886;9.388;2024-02-23T06:30:26;6.43;;;0.95;;
34481;SDS011;20720;48.886;9.388;2024-02-23T06:32:51;2.28;;;0.73;;
34481;SDS011;20720;48.886;9.388;2024-02-23T06:35:16;4.88;;;1.25;;
34481;SDS011;20720;48.886;9.388;2024-02-23T06:37:42;6.85;;;1.70;;
34481;SDS011;20720;48.886;9.388;2024-02-23T06:40:07;8.38;;;1.40;;
34481;SDS011;20720;48.886;9.388;2024-02-23T06:42:33;3.80;;;0.90;;
34481;SDS011;20720;48.886;9.388;2024-02-23T06:44:58;2.60;;;0.77;;
34481;SDS011;20720;48.886;9.388;2024-02-23T06:47:24;2.97;;;0.70;;
34481;SDS011;20720;48.886;9.388;2024-02-23T06:49:49;2.80;;;1.35;;
34481;SDS011;20720;48.886;9.388;2024-02-23T06:52:15;4.15;;;1.55;;
34481;SDS011;20720;48.886;9.388;2024-02-23T06:54:40;2.53;;;0.75;;
34481;SDS011;20720;48.886;9.388;2024-02-23T06:57:06;3.95;;;1.00;;
34481;SDS011;20720;48.886;9.388;2024-02-23T06:59:31;3.67;;;0.90;;
34481;SDS011;20720;48.886;9.388;2024-02-23T07:01:57;3.15;;;1.05;;
34481;SDS011;20720;48.886;9.388;2024-02-23T07:04:22;2.55;;;0.93;;
34481;SDS011;20720;48.886;9.388;2024-02-23T07:06:47;6.28;;;2.88;;
34481;SDS011;20720;48.886;9.388;2024-02-23T07:09:13;24.13;;;6.53;;
34481;SDS011;20720;48.886;9.388;2024-02-23T07:11:38;99.80;;;22.70;;
34481;SDS011;20720;48.886;9.388;2024-02-23T07:14:06;89.50;;;22.85;;
34481;SDS011;20720;48.886;9.388;2024-02-23T07:16:32;77.05;;;18.88;;
34481;SDS011;20720;48.886;9.388;2024-02-23T07:18:57;25.38;;;6.50;;
34481;SDS011;20720;48.886;9.388;2024-02-23T07:21:22;22.33;;;6.03;;
34481;SDS011;20720;48.886;9.388;2024-02-23T07:23:48;18.58;;;5.38;;
34481;SDS011;20720;48.886;9.388;2024-02-23T07:26:13;14.48;;;4.05;;
34481;SDS011;20720;48.886;9.388;2024-02-23T07:28:38;10.68;;;3.00;;
34481;SDS011;20720;48.886;9.388;2024-02-23T07:31:04;11.20;;;2.90;;
34481;SDS011;20720;48.886;9.388;2024-02-23T07:33:29;6.65;;;2.10;;
34481;SDS011;20720;48.886;9.388;2024-02-23T07:35:54;4.75;;;1.30;;
34481;SDS011;20720;48.886;9.388;2024-02-23T07:38:19;9.68;;;2.85;;
34481;SDS011;20720;48.886;9.388;2024-02-23T07:40:45;3.53;;;1.08;;
34481;SDS011;20720;48.886;9.388;2024-02-23T07:43:10;4.00;;;0.90;;
34481;SDS011;20720;48.886;9.388;2024-02-23T07:45:38;2.65;;;0.90;;
34481;SDS011;20720;48.886;9.388;2024-02-23T07:48:04;2.33;;;0.70;;
34481;SDS011;20720;48.886;9.388;2024-02-23T07:50:30;6.85;;;0.75;;
34481;SDS011;20720;48.886;9.388;2024-02-23T07:52:55;1.33;;;0.50;;
34481;SDS011;20720;48.886;9.388;2024-02-23T07:55:20;2.97;;;0.77;;
34481;SDS011;20720;48.886;9.388;2024-02-23T07:57:47;5.13;;;1.00;;
34481;SDS011;20720;48.886;9.388;2024-02-23T08:00:12;3.67;;;0.90;;
34481;SDS011;20720;48.886;9.388;2024-02-23T08:02:38;4.13;;;1.10;;
34481;SDS011;20720;48.886;9.388;2024-02-23T08:05:03;3.63;;;0.70;;
34481;SDS011;20720;48.886;9.388;2024-02-23T08:07:29;2.95;;;0.80;;
34481;SDS011;20720;48.886;9.388;2024-02-23T08:09:55;4.18;;;1.30;;
34481;SDS011;20720;48.886;9.388;2024-02-23T08:12:22;4.90;;;0.93;;
34481;SDS011;20720;48.886;9.388;2024-02-23T08:14:47;5.00;;;1.10;;
34481;SDS011;20720;48.886;9.388;2024-02-23T08:17:14;2.63;;;1.05;;
34481;SDS011;20720;48.886;9.388;2024-02-23T08:19:39;2.45;;;1.08;;
34481;SDS011;20720;48.886;9.388;2024-02-23T08:22:05;3.50;;;1.15;;
34481;SDS011;20720;48.886;9.388;2024-02-23T08:24:30;2.95;;;0.82;;
34481;SDS011;20720;48.886;9.388;2024-02-23T08:26:56;2.42;;;0.85;;
34481;SDS011;20720;48.886;9.388;2024-02-23T08:29:21;3.60;;;1.20;;
34481;SDS011;20720;48.886;9.388;2024-02-23T08:31:47;1.50;;;0.70;;
34481;SDS011;20720;48.886;9.388;2024-02-23T08:34:12;2.97;;;0.73;;
34481;SDS011;20720;48.886;9.388;2024-02-23T08:36:37;4.07;;;0.80;;
34481;SDS011;20720;48.886;9.388;2024-02-23T08:39:03;4.05;;;1.30;;
34481;SDS011;20720;48.886;9.388;2024-02-23T08:41:28;4.18;;;1.10;;
34481;SDS011;20720;48.886;9.388;2024-02-23T08:43:53;3.58;;;0.85;;
34481;SDS011;20720;48.886;9.388;2024-02-23T08:46:20;3.75;;;1.30;;
34481;SDS011;20720;48.886;9.388;2024-02-23T08:48:46;5.78;;;1.90;;
34481;SDS011;20720;48.886;9.388;2024-02-23T08:51:12;5.00;;;1.90;;
34481;SDS011;20720;48.886;9.388;2024-02-23T08:53:37;5.00;;;1.20;;
34481;SDS011;20720;48.886;9.388;2024-02-23T08:56:02;3.90;;;1.10;;
34481;SDS011;20720;48.886;9.388;2024-02-23T08:58:28;6.90;;;1.40;;
34481;SDS011;20720;48.886;9.388;2024-02-23T09:00:53;3.35;;;0.95;;
34481;SDS011;20720;48.886;9.388;2024-02-23T09:03:18;3.38;;;1.33;;
34481;SDS011;20720;48.886;9.388;2024-02-23T09:05:44;4.45;;;1.10;;
34481;SDS011;20720;48.886;9.388;2024-02-23T09:08:11;2.40;;;1.00;;
34481;SDS011;20720;48.886;9.388;2024-02-23T09:10:37;1.83;;;0.68;;
34481;SDS011;20720;48.886;9.388;2024-02-23T09:13:02;4.60;;;0.80;;
34481;SDS011;20720;48.886;9.388;2024-02-23T09:15:28;3.92;;;1.00;;
34481;SDS011;20720;48.886;9.388;2024-02-23T09:17:53;3.40;;;0.73;;
34481;SDS011;20720;48.886;9.388;2024-02-23T09:20:18;4.43;;;1.00;;
34481;SDS011;20720;48.886;9.388;2024-02-23T09:22:44;5.43;;;1.40;;
34481;SDS011;20720;48.886;9.388;2024-02-23T09:25:09;3.95;;;0.90;;
34481;SDS011;20720;48.886;9.388;2024-02-23T09:27:34;2.58;;;0.80;;
34481;SDS011;20720;48.886;9.388;2024-02-23T09:30:04;8.77;;;1.08;;
34481;SDS011;20720;48.886;9.388;2024-02-23T09:32:29;4.28;;;1.02;;
34481;SDS011;20720;48.886;9.388;2024-02-23T09:34:54;2.92;;;0.85;;
34481;SDS011;20720;48.886;9.388;2024-02-23T09:37:20;5.03;;;1.27;;
34481;SDS011;20720;48.886;9.388;2024-02-23T09:39:45;6.18;;;1.10;;
34481;SDS011;20720;48.886;9.388;2024-02-23T09:42:10;2.97;;;0.70;;
34481;SDS011;20720;48.886;9.388;2024-02-23T09:44:36;3.60;;;1.00;;
34481;SDS011;20720;48.886;9.388;2024-02-23T09:47:02;4.35;;;1.10;;
34481;SDS011;20720;48.886;9.388;2024-02-23T09:49:33;4.28;;;0.95;;
34481;SDS011;20720;48.886;9.388;2024-02-23T09:52:08;6.43;;;0.75;;
34481;SDS011;20720;48.886;9.388;2024-02-23T09:54:35;3.83;;;0.80;;
34481;SDS011;20720;48.886;9.388;2024-02-23T09:57:02;4.53;;;0.80;;
34481;SDS011;20720;48.886;9.388;2024-02-23T09:59:33;3.72;;;0.80;;
34481;SDS011;20720;48.886;9.388;2024-02-23T10:01:59;5.00;;;0.80;;
34481;SDS011;20720;48.886;9.388;2024-02-23T10:04:24;4.40;;;0.63;;
34481;SDS011;20720;48.886;9.388;2024-02-23T10:06:54;5.22;;;0.80;;
34481;SDS011;20720;48.886;9.388;2024-02-23T10:09:19;5.15;;;0.77;;
34481;SDS011;20720;48.886;9.388;2024-02-23T10:11:51;5.15;;;0.70;;
34481;SDS011;20720;48.886;9.388;2024-02-23T10:14:17;5.03;;;0.93;;
34481;SDS011;20720;48.886;9.388;2024-02-23T10:16:42;4.32;;;0.70;;
34481;SDS011;20720;48.886;9.388;2024-02-23T10:19:07;5.13;;;1.30;;
34481;SDS011;20720;48.886;9.388;2024-02-23T10:21:33;7.05;;;1.08;;
34481;SDS011;20720;48.886;9.388;2024-02-23T10:23:58;3.63;;;1.00;;
34481;SDS011;20720;48.886;9.388;2024-02-23T10:26:24;4.22;;;0.80;;
34481;SDS011;20720;48.886;9.388;2024-02-23T10:28:51;1.63;;;0.52;;
34481;SDS011;20720;48.886;9.388;2024-02-23T10:31:16;1.88;;;0.35;;
34481;SDS011;20720;48.886;9.388;2024-02-23T10:33:42;7.43;;;1.23;;
34481;SDS011;20720;48.886;9.388;2024-02-23T10:36:09;2.90;;;0.90;;
34481;SDS011;20720;48.886;9.388;2024-02-23T10:38:40;3.80;;;0.60;;
34481;SDS011;20720;48.886;9.388;2024-02-23T10:41:09;3.78;;;0.52;;
34481;SDS011;20720;48.886;9.388;2024-02-23T10:43:45;3.58;;;0.70;;
34481;SDS011;20720;48.886;9.388;2024-02-23T10:46:12;3.72;;;0.70;;
34481;SDS011;20720;48.886;9.388;2024-02-23T10:48:39;4.57;;;0.85;;
34481;SDS011;20720;48.886;9.388;2024-02-23T10:51:05;4.45;;;0.80;;
34481;SDS011;20720;48.886;9.388;2024-02-23T10:53:32;3.42;;;0.70;;
34481;SDS011;20720;48.886;9.388;2024-02-23T10:56:00;4.20;;;0.80;;
34481;SDS011;20720;48.886;9.388;2024-02-23T10:58:26;5.35;;;0.80;;
34481;SDS011;20720;48.886;9.388;2024-02-23T11:00:52;6.13;;;0.85;;
34481;SDS011;20720;48.886;9.388;2024-02-23T11:03:27;2.35;;;0.50;;
34481;SDS011;20720;48.886;9.388;2024-02-23T11:05:54;4.30;;;0.80;;
34481;SDS011;20720;48.886;9.388;2024-02-23T11:08:19;5.80;;;0.68;;
34481;SDS011;20720;48.886;9.388;2024-02-23T11:10:51;5.32;;;0.73;;
34481;SDS011;20720;48.886;9.388;2024-02-23T11:13:34;3.20;;;0.70;;
34481;SDS011;20720;48.886;9.388;2024-02-23T11:16:06;5.30;;;0.80;;
34481;SDS011;20720;48.886;9.388;2024-02-23T11:18:37;4.47;;;0.50;;
34481;SDS011;20720;48.886;9.388;2024-02-23T11:21:05;3.70;;;0.80;;
34481;SDS011;20720;48.886;9.388;2024-02-23T11:23:40;5.25;;;0.93;;
34481;SDS011;20720;48.886;9.388;2024-02-23T11:26:09;11.65;;;0.95;;
34481;SDS011;20720;48.886;9.388;2024-02-23T11:31:14;3.28;;;0.82;;
34481;SDS011;20720;48.886;9.388;2024-02-23T11:33:40;8.27;;;0.77;;
34481;SDS011;20720;48.886;9.388;2024-02-23T11:36:12;6.05;;;0.80;;
34481;SDS011;20720;48.886;9.388;2024-02-23T11:38:38;3.53;;;0.80;;
34481;SDS011;20720;48.886;9.388;2024-02-23T11:41:04;6.53;;;1.00;;
34481;SDS011;20720;48.886;9.388;2024-02-23T11:43:29;2.28;;;0.80;;
34481;SDS011;20720;48.886;9.388;2024-02-23T11:45:54;4.63;;;0.68;;
34481;SDS011;20720;48.886;9.388;2024-02-23T11:48:20;3.58;;;0.70;;
34481;SDS011;20720;48.886;9.388;2024-02-23T11:50:47;7.25;;;0.88;;
34481;SDS011;20720;48.886;9.388;2024-02-23T11:53:14;4.47;;;0.70;;
34481;SDS011;20720;48.886;9.388;2024-02-23T11:55:39;8.10;;;1.38;;
34481;SDS011;20720;48.886;9.388;2024-02-23T11:58:05;7.05;;;1.20;;
34481;SDS011;20720;48.886;9.388;2024-02-23T12:00:31;7.15;;;1.00;;
34481;SDS011;20720;48.886;9.388;2024-02-23T12:02:56;6.10;;;0.90;;
34481;SDS011;20720;48.886;9.388;2024-02-23T12:05:22;6.07;;;0.70;;
34481;SDS011;20720;48.886;9.388;2024-02-23T12:07:47;6.05;;;1.00;;
34481;SDS011;20720;48.886;9.388;2024-02-23T12:10:12;7.22;;;0.95;;
34481;SDS011;20720;48.886;9.388;2024-02-23T12:12:38;6.93;;;1.05;;
34481;SDS011;20720;48.886;9.388;2024-02-23T12:15:04;4.25;;;0.70;;
34481;SDS011;20720;48.886;9.388;2024-02-23T12:17:31;3.50;;;0.52;;
34481;SDS011;20720;48.886;9.388;2024-02-23T12:19:59;8.65;;;1.05;;
34481;SDS011;20720;48.886;9.388;2024-02-23T12:22:25;5.35;;;0.70;;
34481;SDS011;20720;48.886;9.388;2024-02-23T12:24:50;5.50;;;0.85;;
34481;SDS011;20720;48.886;9.388;2024-02-23T12:27:16;4.43;;;0.80;;
34481;SDS011;20720;48.886;9.388;2024-02-23T12:29:50;4.38;;;0.70;;
34481;SDS011;20720;48.886;9.388;2024-02-23T12:32:16;2.38;;;0.50;;
34481;SDS011;20720;48.886;9.388;2024-02-23T12:34:45;4.07;;;0.80;;
34481;SDS011;20720;48.886;9.388;2024-02-23T12:37:14;6.22;;;0.77;;
34481;SDS011;20720;48.886;9.388;2024-02-23T12:39:40;3.78;;;0.88;;
34481;SDS011;20720;48.886;9.388;2024-02-23T12:42:05;4.25;;;0.68;;
34481;SDS011;20720;48.886;9.388;2024-02-23T12:44:30;6.75;;;1.00;;
34481;SDS011;20720;48.886;9.388;2024-02-23T12:46:55;5.60;;;0.80;;
34481;SDS011;20720;48.886;9.388;2024-02-23T12:49:21;3.50;;;0.82;;
34481;SDS011;20720;48.886;9.388;2024-02-23T12:51:46;4.65;;;0.75;;
34481;SDS011;20720;48.886;9.388;2024-02-23T12:54:11;5.75;;;1.05;;
34481;SDS011;20720;48.886;9.388;2024-02-23T12:56:36;4.53;;;0.63;;
34481;SDS011;20720;48.886;9.388;2024-02-23T12:59:02;4.75;;;1.00;;
34481;SDS011;20720;48.886;9.388;2024-02-23T13:01:27;9.20;;;2.88;;
34481;SDS011;20720;48.886;9.388;2024-02-23T13:03:52;6.95;;;1.60;;
34481;SDS011;20720;48.886;9.388;2024-02-23T13:06:18;7.43;;;1.42;;
34481;SDS011;20720;48.886;9.388;2024-02-23T13:08:43;10.35;;;1.00;;
34481;SDS011;20720;48.886;9.388;2024-02-23T13:11:09;5.07;;;1.08;;
34481;SDS011;20720;48.886;9.388;2024-02-23T13:13:34;6.00;;;0.82;;
34481;SDS011;20720;48.886;9.388;2024-02-23T13:15:59;5.22;;;0.60;;
34481;SDS011;20720;48.886;9.388;2024-02-23T13:18:25;5.60;;;1.05;;
34481;SDS011;20720;48.886;9.388;2024-02-23T13:20:50;5.28;;;1.00;;
34481;SDS011;20720;48.886;9.388;2024-02-23T13:23:15;7.72;;;1.20;;
34481;SDS011;20720;48.886;9.388;2024-02-23T13:25:41;4.70;;;0.77;;
34481;SDS011;20720;48.886;9.388;2024-02-23T13:28:07;4.38;;;0.70;;
34481;SDS011;20720;48.886;9.388;2024-02-23T13:30:33;3.85;;;1.00;;
34481;SDS011;20720;48.886;9.388;2024-02-23T13:33:00;4.88;;;0.80;;
34481;SDS011;20720;48.886;9.388;2024-02-23T13:35:25;6.03;;;1.63;;
34481;SDS011;20720;48.886;9.388;2024-02-23T13:37:50;4.28;;;0.80;;
34481;SDS011;20720;48.886;9.388;2024-02-23T13:40:16;7.70;;;1.02;;
34481;SDS011;20720;48.886;9.388;2024-02-23T13:42:41;4.95;;;0.70;;
34481;SDS011;20720;48.886;9.388;2024-02-23T13:45:07;4.07;;;0.80;;
34481;SDS011;20720;48.886;9.388;2024-02-23T13:47:36;3.60;;;0.68;;
34481;SDS011;20720;48.886;9.388;2024-02-23T13:50:02;6.75;;;0.93;;
34481;SDS011;20720;48.886;9.388;2024-02-23T13:52:27;6.88;;;0.85;;
34481;SDS011;20720;48.886;9.388;2024-02-23T13:54:54;3.35;;;0.70;;
34481;SDS011;20720;48.886;9.388;2024-02-23T13:57:19;4.78;;;0.98;;
34481;SDS011;20720;48.886;9.388;2024-02-23T13:59:45;2.40;;;0.80;;
34481;SDS011;20720;48.886;9.388;2024-02-23T14:02:10;4.63;;;0.80;;
34481;SDS011;20720;48.886;9.388;2024-02-23T14:04:35;5.22;;;0.90;;
34481;SDS011;20720;48.886;9.388;2024-02-23T14:07:01;7.35;;;1.13;;
34481;SDS011;20720;48.886;9.388;2024-02-23T14:09:26;5.05;;;0.95;;
34481;SDS011;20720;48.886;9.388;2024-02-23T14:11:51;5.45;;;1.20;;
34481;SDS011;20720;48.886;9.388;2024-02-23T14:14:17;8.60;;;1.58;;
34481;SDS011;20720;48.886;9.388;2024-02-23T14:16:42;3.70;;;1.10;;
34481;SDS011;20720;48.886;9.388;2024-02-23T14:19:07;10.30;;;1.10;;
34481;SDS011;20720;48.886;9.388;2024-02-23T14:21:33;6.45;;;1.30;;
34481;SDS011;20720;48.886;9.388;2024-02-23T14:24:01;8.18;;;1.13;;
34481;SDS011;20720;48.886;9.388;2024-02-23T14:26:27;4.40;;;0.93;;
34481;SDS011;20720;48.886;9.388;2024-02-23T14:28:53;7.10;;;1.08;;
34481;SDS011;20720;48.886;9.388;2024-02-23T14:31:18;8.57;;;1.13;;
34481;SDS011;20720;48.886;9.388;2024-02-23T14:33:43;8.07;;;1.20;;
34481;SDS011;20720;48.886;9.388;2024-02-23T14:36:08;6.50;;;1.30;;
34481;SDS011;20720;48.886;9.388;2024-02-23T14:38:33;8.70;;;1.40;;
34481;SDS011;20720;48.886;9.388;2024-02-23T14:40:59;6.90;;;1.08;;
34481;SDS011;20720;48.886;9.388;2024-02-23T14:43:24;5.80;;;1.15;;